createdAt,value
2023-01-29T00:00:03.759Z,-2.25
2023-01-29T00:01:03.669Z,-2.25
2023-01-29T00:02:03.664Z,-2.25
2023-01-29T00:03:03.738Z,-2.25
2023-01-29T00:04:03.510Z,-2.25
2023-01-29T00:05:16.850Z,-2.25
2023-01-29T00:06:04.387Z,-2.25
2023-01-29T00:07:04.477Z,-2.25
2023-01-29T00:08:04.310Z,-2.25
2023-01-29T00:09:04.242Z,-2.25
2023-01-29T00:10:04.158Z,-2.25
2023-01-29T00:11:04.064Z,-2.25
2023-01-29T00:12:04.068Z,-2.25
2023-01-29T00:13:03.985Z,-2.25
2023-01-29T00:14:04.077Z,-2.25
2023-01-29T00:15:04.069Z,-2.19
2023-01-29T00:16:04.069Z,-2.19
2023-01-29T00:17:04.218Z,-2.25
2023-01-29T00:18:03.988Z,-2.25
2023-01-29T00:19:03.954Z,-2.25
2023-01-29T00:20:03.909Z,-2.25
2023-01-29T00:21:03.921Z,-2.25
2023-01-29T00:22:03.846Z,-2.25
2023-01-29T00:23:03.841Z,-2.25
2023-01-29T00:24:03.736Z,-2.25
2023-01-29T00:25:03.593Z,-2.25
2023-01-29T00:26:03.507Z,-2.25
2023-01-29T00:27:03.511Z,-2.25
2023-01-29T00:28:04.393Z,-2.25
2023-01-29T00:29:04.475Z,-2.25
2023-01-29T00:30:04.477Z,-2.25
2023-01-29T00:31:04.484Z,-2.25
2023-01-29T00:32:04.335Z,-2.25
2023-01-29T00:33:04.311Z,-2.25
2023-01-29T00:34:04.160Z,-2.25
2023-01-29T00:35:04.069Z,-2.25
2023-01-29T00:36:03.998Z,-2.25
2023-01-29T00:37:03.991Z,-2.25
2023-01-29T00:38:03.913Z,-2.25
2023-01-29T00:39:03.747Z,-2.25
2023-01-29T00:40:03.751Z,-2.25
2023-01-29T00:41:03.750Z,-2.25
2023-01-29T00:42:03.673Z,-2.31
2023-01-29T00:43:03.996Z,-2.31
2023-01-29T00:44:03.990Z,-2.31
2023-01-29T00:45:03.912Z,-2.25
2023-01-29T00:46:03.828Z,-2.31
2023-01-29T00:47:03.763Z,-2.31
2023-01-29T00:48:03.679Z,-2.31
2023-01-29T00:49:03.670Z,-2.31
2023-01-29T00:50:03.627Z,-2.31
2023-01-29T00:51:03.532Z,-2.25
2023-01-29T00:52:03.509Z,-2.25
2023-01-29T00:53:04.471Z,-2.31
2023-01-29T00:54:04.394Z,-2.31
2023-01-29T00:55:04.234Z,-2.31
2023-01-29T00:56:04.234Z,-2.31
2023-01-29T00:57:04.148Z,-2.31
2023-01-29T00:58:04.075Z,-2.31
2023-01-29T00:59:03.989Z,-2.31
2023-01-29T01:00:04.015Z,-2.31
2023-01-29T01:01:03.958Z,-2.31
2023-01-29T01:02:03.928Z,-2.31
2023-01-29T01:03:03.765Z,-2.31
2023-01-29T01:04:03.757Z,-2.31
2023-01-29T01:05:03.684Z,-2.31
2023-01-29T01:06:03.507Z,-2.31
2023-01-29T01:07:03.590Z,-2.31
2023-01-29T01:08:03.509Z,-2.31
2023-01-29T01:09:03.514Z,-2.31
2023-01-29T01:10:03.681Z,-2.31
2023-01-29T01:11:03.590Z,-2.31
2023-01-29T01:12:03.514Z,-2.31
2023-01-29T01:13:03.629Z,-2.31
2023-01-29T01:14:03.605Z,-2.31
2023-01-29T01:15:03.516Z,-2.38
2023-01-29T01:16:03.596Z,-2.38
2023-01-29T01:17:04.391Z,-2.38
2023-01-29T01:18:04.525Z,-2.38
2023-01-29T01:19:04.157Z,-2.38
2023-01-29T01:20:04.076Z,-2.38
2023-01-29T01:21:04.072Z,-2.38
2023-01-29T01:22:04.392Z,-2.38
2023-01-29T01:23:04.333Z,-2.44
2023-01-29T01:24:04.327Z,-2.44
2023-01-29T01:25:04.166Z,-2.44
2023-01-29T01:26:04.072Z,-2.44
2023-01-29T01:27:04.239Z,-2.44
2023-01-29T01:28:04.091Z,-2.44
2023-01-29T01:29:03.991Z,-2.50
2023-01-29T01:30:04.005Z,-2.50
2023-01-29T01:31:04.003Z,-2.50
2023-01-29T01:32:04.068Z,-2.56
2023-01-29T01:33:03.833Z,-2.56
2023-01-29T01:34:03.834Z,-2.56
2023-01-29T01:35:03.754Z,-2.62
2023-01-29T01:36:03.679Z,-2.62
2023-01-29T01:37:03.593Z,-2.62
2023-01-29T01:38:03.592Z,-2.69
2023-01-29T01:39:03.591Z,-2.69
2023-01-29T01:40:03.670Z,-2.69
2023-01-29T01:41:03.680Z,-2.75
2023-01-29T01:42:03.522Z,-2.75
2023-01-29T01:43:03.588Z,-2.81
2023-01-29T01:44:03.593Z,-2.81
2023-01-29T01:45:03.510Z,-2.88
2023-01-29T01:46:03.498Z,-2.88
2023-01-29T01:47:03.505Z,-2.94
2023-01-29T01:48:03.509Z,-2.94
2023-01-29T01:49:03.535Z,-3.00
2023-01-29T01:50:03.427Z,-3.00
2023-01-29T01:51:04.428Z,-3.06
2023-01-29T01:52:04.311Z,-3.06
2023-01-29T01:53:04.238Z,-3.12
2023-01-29T01:54:04.159Z,-3.12
2023-01-29T01:55:04.072Z,-3.19
2023-01-29T01:56:04.147Z,-3.25
2023-01-29T01:57:04.152Z,-3.25
2023-01-29T01:58:04.076Z,-3.31
2023-01-29T01:59:04.001Z,-3.31
2023-01-29T02:00:03.835Z,-3.38
2023-01-29T02:01:03.841Z,-3.38
2023-01-29T02:02:03.698Z,-3.38
2023-01-29T02:03:03.613Z,-3.44
2023-01-29T02:04:03.514Z,-3.44
2023-01-29T02:05:04.312Z,-3.50
2023-01-29T02:06:04.316Z,-3.50
2023-01-29T02:07:04.161Z,-3.56
2023-01-29T02:08:04.158Z,-3.56
2023-01-29T02:09:03.992Z,-3.62
2023-01-29T02:10:04.313Z,-3.62
2023-01-29T02:11:04.070Z,-3.62
2023-01-29T02:12:04.154Z,-3.69
2023-01-29T02:13:04.067Z,-3.69
2023-01-29T02:14:04.072Z,-3.75
2023-01-29T02:15:04.076Z,-3.75
2023-01-29T02:16:04.012Z,-3.75
2023-01-29T02:17:04.087Z,-3.81
2023-01-29T02:18:03.918Z,-3.81
2023-01-29T02:19:03.827Z,-3.88
2023-01-29T02:20:03.774Z,-3.88
2023-01-29T02:21:03.672Z,-3.94
2023-01-29T02:22:03.540Z,-3.94
2023-01-29T02:23:04.405Z,-3.94
2023-01-29T02:24:04.466Z,-4.00
2023-01-29T02:25:04.398Z,-4.00
2023-01-29T02:26:04.241Z,-4.06
2023-01-29T02:27:04.156Z,-4.06
2023-01-29T02:28:03.995Z,-4.06
2023-01-29T02:29:03.916Z,-4.12
2023-01-29T02:30:03.833Z,-4.12
2023-01-29T02:31:03.701Z,-4.19
2023-01-29T02:32:03.698Z,-4.19
2023-01-29T02:33:03.548Z,-4.19
2023-01-29T02:34:03.432Z,-4.19
2023-01-29T02:35:03.509Z,-4.25
2023-01-29T02:36:04.393Z,-4.25
2023-01-29T02:37:04.000Z,-4.25
2023-01-29T02:38:03.991Z,-4.25
2023-01-29T02:39:03.908Z,-4.31
2023-01-29T02:40:03.831Z,-4.31
2023-01-29T02:41:03.840Z,-4.31
2023-01-29T02:42:03.747Z,-4.38
2023-01-29T02:43:03.755Z,-4.38
2023-01-29T02:44:03.587Z,-4.38
2023-01-29T02:45:03.588Z,-4.38
2023-01-29T02:46:03.611Z,-4.44
2023-01-29T02:47:04.389Z,-4.44
2023-01-29T02:48:03.511Z,-4.44
2023-01-29T02:49:04.483Z,-4.50
2023-01-29T02:50:04.314Z,-4.50
2023-01-29T02:51:04.330Z,-4.50
2023-01-29T02:52:04.236Z,-4.50
2023-01-29T02:53:04.075Z,-4.56
2023-01-29T02:54:04.092Z,-4.56
2023-01-29T02:55:03.934Z,-4.56
2023-01-29T02:56:03.849Z,-4.62
2023-01-29T02:57:03.673Z,-4.62
2023-01-29T02:58:03.663Z,-4.62
2023-01-29T02:59:03.587Z,-4.62
2023-01-29T03:00:03.506Z,-4.62
2023-01-29T03:01:04.509Z,-4.69
2023-01-29T03:02:04.372Z,-4.69
2023-01-29T03:03:04.410Z,-4.69
2023-01-29T03:04:04.151Z,-4.75
2023-01-29T03:05:04.151Z,-4.75
2023-01-29T03:06:04.070Z,-4.75
2023-01-29T03:07:04.072Z,-4.75
2023-01-29T03:08:03.986Z,-4.81
2023-01-29T03:09:03.920Z,-4.81
2023-01-29T03:10:03.832Z,-4.81
2023-01-29T03:11:03.760Z,-4.81
2023-01-29T03:12:03.669Z,-4.81
2023-01-29T03:13:03.509Z,-4.88
2023-01-29T03:14:03.529Z,-4.81
2023-01-29T03:15:04.384Z,-4.88
2023-01-29T03:16:04.440Z,-4.88
2023-01-29T03:17:04.473Z,-4.88
2023-01-29T03:18:04.384Z,-4.88
2023-01-29T03:19:04.232Z,-4.88
2023-01-29T03:20:04.161Z,-4.88
2023-01-29T03:21:04.093Z,-4.88
2023-01-29T03:22:03.986Z,-4.88
2023-01-29T03:23:04.472Z,-4.88
2023-01-29T03:24:04.390Z,-4.88
2023-01-29T03:25:04.308Z,-4.88
2023-01-29T03:26:04.231Z,-4.88
2023-01-29T03:27:04.152Z,-4.88
2023-01-29T03:28:03.908Z,-4.88
2023-01-29T03:29:03.825Z,-4.88
2023-01-29T03:30:04.700Z,-4.88
2023-01-29T03:31:03.713Z,-4.88
2023-01-29T03:32:03.717Z,-4.88
2023-01-29T03:33:03.664Z,-4.88
2023-01-29T03:34:03.593Z,-4.88
2023-01-29T03:35:03.522Z,-4.94
2023-01-29T03:36:03.506Z,-4.94
2023-01-29T03:37:03.511Z,-4.94
2023-01-29T03:38:03.592Z,-4.94
2023-01-29T03:39:03.451Z,-4.94
2023-01-29T03:40:04.407Z,-4.94
2023-01-29T03:41:04.313Z,-4.94
2023-01-29T03:42:04.154Z,-4.94
2023-01-29T03:43:04.091Z,-4.94
2023-01-29T03:44:04.012Z,-4.94
2023-01-29T03:45:03.914Z,-4.94
2023-01-29T03:46:04.015Z,-4.94
2023-01-29T03:47:03.745Z,-4.94
2023-01-29T03:48:03.683Z,-4.94
2023-01-29T03:49:03.670Z,-4.94
2023-01-29T03:50:03.585Z,-5.00
2023-01-29T03:51:03.508Z,-5.00
2023-01-29T03:52:03.514Z,-5.00
2023-01-29T03:53:03.425Z,-5.00
2023-01-29T03:54:04.318Z,-5.00
2023-01-29T03:55:04.335Z,-5.00
2023-01-29T03:56:04.152Z,-5.00
2023-01-29T03:57:04.241Z,-5.06
2023-01-29T03:58:04.077Z,-5.06
2023-01-29T03:59:03.998Z,-5.06
2023-01-29T04:00:03.824Z,-5.06
2023-01-29T04:01:03.675Z,-5.06
2023-01-29T04:02:03.671Z,-5.06
2023-01-29T04:03:03.752Z,-5.12
2023-01-29T04:04:03.645Z,-5.12
2023-01-29T04:05:03.689Z,-5.12
2023-01-29T04:06:03.590Z,-5.19
2023-01-29T04:07:03.429Z,-5.19
2023-01-29T04:08:04.396Z,-5.19
2023-01-29T04:09:04.309Z,-5.19
2023-01-29T04:10:04.306Z,-5.19
2023-01-29T04:11:04.229Z,-5.19
2023-01-29T04:12:04.153Z,-5.19
2023-01-29T04:13:04.167Z,-5.25
2023-01-29T04:14:03.992Z,-5.25
2023-01-29T04:15:03.993Z,-5.25
2023-01-29T04:16:03.994Z,-5.25
2023-01-29T04:17:03.908Z,-5.25
2023-01-29T04:18:03.915Z,-5.31
2023-01-29T04:19:03.751Z,-5.31
2023-01-29T04:20:03.666Z,-5.31
2023-01-29T04:21:03.670Z,-5.31
2023-01-29T04:22:03.594Z,-5.31
2023-01-29T04:23:03.676Z,-5.31
2023-01-29T04:24:03.693Z,-5.31
2023-01-29T04:25:03.518Z,-5.31
2023-01-29T04:26:04.402Z,-5.38
2023-01-29T04:27:04.308Z,-5.38
2023-01-29T04:28:04.239Z,-5.38
2023-01-29T04:29:04.156Z,-5.38
2023-01-29T04:30:04.152Z,-5.44
2023-01-29T04:31:04.189Z,-5.44
2023-01-29T04:32:04.067Z,-5.50
2023-01-29T04:33:03.996Z,-5.50
2023-01-29T04:34:03.986Z,-5.50
2023-01-29T04:35:03.991Z,-5.50
2023-01-29T04:36:03.822Z,-5.56
2023-01-29T04:37:03.755Z,-5.56
2023-01-29T04:38:03.748Z,-5.56
2023-01-29T04:39:03.684Z,-5.56
2023-01-29T04:40:03.587Z,-5.62
2023-01-29T04:41:03.599Z,-5.62
2023-01-29T04:42:04.648Z,-5.62
2023-01-29T04:43:03.595Z,-5.69
2023-01-29T04:44:03.685Z,-5.69
2023-01-29T04:45:03.504Z,-5.69
2023-01-29T04:46:03.700Z,-5.75
2023-01-29T04:47:03.750Z,-5.75
2023-01-29T04:48:03.669Z,-5.81
2023-01-29T04:49:03.676Z,-5.81
2023-01-29T04:50:03.593Z,-5.81
2023-01-29T04:51:03.598Z,-5.81
2023-01-29T04:52:03.422Z,-5.81
2023-01-29T04:53:03.427Z,-5.81
2023-01-29T04:54:03.821Z,-5.81
2023-01-29T04:55:03.671Z,-5.81
2023-01-29T04:56:03.755Z,-5.81
2023-01-29T04:57:03.752Z,-5.81
2023-01-29T04:58:03.668Z,-5.81
2023-01-29T04:59:03.673Z,-5.81
2023-01-29T05:00:03.424Z,-5.81
2023-01-29T05:01:04.481Z,-5.81
2023-01-29T05:02:04.405Z,-5.88
2023-01-29T05:03:04.292Z,-5.88
2023-01-29T05:04:04.154Z,-5.88
2023-01-29T05:05:04.234Z,-5.88
2023-01-29T05:06:04.070Z,-5.88
2023-01-29T05:07:03.988Z,-5.94
2023-01-29T05:08:03.996Z,-5.94
2023-01-29T05:09:03.909Z,-5.94
2023-01-29T05:10:03.827Z,-5.94
2023-01-29T05:11:03.747Z,-5.94
2023-01-29T05:12:03.683Z,-5.94
2023-01-29T05:13:03.606Z,-6.00
2023-01-29T05:14:03.596Z,-6.00
2023-01-29T05:15:03.908Z,-6.00
2023-01-29T05:16:03.918Z,-6.00
2023-01-29T05:17:03.905Z,-6.00
2023-01-29T05:18:03.919Z,-6.00
2023-01-29T05:19:03.912Z,-6.00
2023-01-29T05:20:03.751Z,-6.00
2023-01-29T05:21:03.748Z,-6.00
2023-01-29T05:22:03.750Z,-6.06
2023-01-29T05:23:03.663Z,-6.06
2023-01-29T05:24:03.610Z,-6.06
2023-01-29T05:25:04.025Z,-6.06
2023-01-29T05:26:03.838Z,-6.06
2023-01-29T05:27:03.912Z,-6.06
2023-01-29T05:28:03.826Z,-6.06
2023-01-29T05:29:03.835Z,-6.06
2023-01-29T05:30:03.829Z,-6.06
2023-01-29T05:31:03.857Z,-6.06
2023-01-29T05:32:03.675Z,-6.06
2023-01-29T05:33:03.759Z,-6.06
2023-01-29T05:34:03.752Z,-6.12
2023-01-29T05:35:03.673Z,-6.12
2023-01-29T05:36:04.118Z,-6.12
2023-01-29T05:37:03.689Z,-6.19
2023-01-29T05:38:03.598Z,-6.19
2023-01-29T05:39:03.683Z,-6.19
2023-01-29T05:40:03.692Z,-6.19
2023-01-29T05:41:03.591Z,-6.19
2023-01-29T05:42:03.529Z,-6.19
2023-01-29T05:43:04.396Z,-6.19
2023-01-29T05:44:03.428Z,-6.25
2023-01-29T05:45:03.509Z,-6.25
2023-01-29T05:46:04.310Z,-6.25
2023-01-29T05:47:04.819Z,-6.25
2023-01-29T05:48:03.431Z,-6.25
2023-01-29T05:49:04.467Z,-6.25
2023-01-29T05:50:03.519Z,-6.25
2023-01-29T05:51:04.488Z,-6.25
2023-01-29T05:52:04.302Z,-6.25
2023-01-29T05:53:04.333Z,-6.25
2023-01-29T05:54:04.223Z,-6.25
2023-01-29T05:55:04.167Z,-6.31
2023-01-29T05:56:04.156Z,-6.31
2023-01-29T05:57:04.172Z,-6.31
2023-01-29T05:58:05.854Z,-6.31
2023-01-29T05:59:03.984Z,-6.31
2023-01-29T06:00:03.993Z,-6.38
2023-01-29T06:01:04.081Z,-6.31
2023-01-29T06:02:04.044Z,-6.38
2023-01-29T06:03:04.102Z,-6.38
2023-01-29T06:04:03.992Z,-6.38
2023-01-29T06:05:04.302Z,-6.38
2023-01-29T06:06:04.388Z,-6.38
2023-01-29T06:07:04.232Z,-6.38
2023-01-29T06:08:04.236Z,-6.44
2023-01-29T06:09:04.234Z,-6.44
2023-01-29T06:10:04.069Z,-6.44
2023-01-29T06:11:04.155Z,-6.44
2023-01-29T06:12:04.069Z,-6.44
2023-01-29T06:13:04.155Z,-6.44
2023-01-29T06:14:04.230Z,-6.44
2023-01-29T06:15:03.982Z,-6.44
2023-01-29T06:16:03.985Z,-6.44
2023-01-29T06:17:04.016Z,-6.44
2023-01-29T06:18:04.012Z,-6.44
2023-01-29T06:19:03.992Z,-6.50
2023-01-29T06:20:03.917Z,-6.50
2023-01-29T06:21:04.028Z,-6.50
2023-01-29T06:22:03.910Z,-6.50
2023-01-29T06:23:03.936Z,-6.50
2023-01-29T06:24:03.921Z,-6.50
2023-01-29T06:25:03.832Z,-6.50
2023-01-29T06:26:03.908Z,-6.50
2023-01-29T06:27:03.924Z,-6.50
2023-01-29T06:28:03.755Z,-6.50
2023-01-29T06:29:03.758Z,-6.50
2023-01-29T06:30:03.666Z,-6.50
2023-01-29T06:31:21.257Z,-6.50
2023-01-29T06:32:03.702Z,-6.50
2023-01-29T06:33:03.693Z,-6.50
2023-01-29T06:34:03.788Z,-6.50
2023-01-29T06:35:03.721Z,-6.50
2023-01-29T06:36:03.580Z,-6.50
2023-01-29T06:37:03.617Z,-6.50
2023-01-29T06:38:03.511Z,-6.50
2023-01-29T06:39:03.516Z,-6.44
2023-01-29T06:40:03.768Z,-6.50
2023-01-29T06:41:03.669Z,-6.44
2023-01-29T06:42:03.669Z,-6.50
2023-01-29T06:43:03.687Z,-6.50
2023-01-29T06:44:03.597Z,-6.50
2023-01-29T06:45:03.664Z,-6.50
2023-01-29T06:46:03.672Z,-6.50
2023-01-29T06:47:03.432Z,-6.50
2023-01-29T06:48:04.479Z,-6.50
2023-01-29T06:49:04.315Z,-6.50
2023-01-29T06:50:04.350Z,-6.50
2023-01-29T06:51:04.314Z,-6.50
2023-01-29T06:52:04.226Z,-6.50
2023-01-29T06:53:04.232Z,-6.50
2023-01-29T06:54:04.233Z,-6.50
2023-01-29T06:55:04.183Z,-6.50
2023-01-29T06:56:04.076Z,-6.50
2023-01-29T06:57:04.072Z,-6.50
2023-01-29T06:58:04.080Z,-6.50
2023-01-29T06:59:04.076Z,-6.50
2023-01-29T07:00:04.112Z,-6.50
2023-01-29T07:01:04.046Z,-6.50
2023-01-29T07:02:04.050Z,-6.44
2023-01-29T07:03:03.987Z,-6.44
2023-01-29T07:04:04.062Z,-6.44
2023-01-29T07:05:04.077Z,-6.44
2023-01-29T07:06:04.088Z,-6.44
2023-01-29T07:07:03.991Z,-6.44
2023-01-29T07:08:03.992Z,-6.44
2023-01-29T07:09:04.012Z,-6.44
2023-01-29T07:10:04.069Z,-6.44
2023-01-29T07:11:03.994Z,-6.44
2023-01-29T07:12:04.004Z,-6.44
2023-01-29T07:13:04.067Z,-6.44
2023-01-29T07:14:04.078Z,-6.44
2023-01-29T07:15:04.068Z,-6.44
2023-01-29T07:16:04.172Z,-6.50
2023-01-29T07:17:04.233Z,-6.44
2023-01-29T07:18:04.225Z,-6.50
2023-01-29T07:19:04.159Z,-6.50
2023-01-29T07:20:04.140Z,-6.44
2023-01-29T07:21:04.191Z,-6.44
2023-01-29T07:22:04.069Z,-6.44
2023-01-29T07:23:04.166Z,-6.44
2023-01-29T07:24:04.141Z,-6.44
2023-01-29T07:25:03.997Z,-6.44
2023-01-29T07:26:03.904Z,-6.44
2023-01-29T07:27:03.989Z,-6.44
2023-01-29T07:28:03.987Z,-6.44
2023-01-29T07:29:04.069Z,-6.44
2023-01-29T07:30:04.067Z,-6.44
2023-01-29T07:31:03.665Z,-6.44
2023-01-29T07:32:03.511Z,-6.44
2023-01-29T07:33:04.723Z,-6.44
2023-01-29T07:34:03.462Z,-6.38
2023-01-29T07:35:03.992Z,-6.38
2023-01-29T07:36:03.989Z,-6.38
2023-01-29T07:37:03.986Z,-6.38
2023-01-29T07:38:03.990Z,-6.31
2023-01-29T07:39:03.983Z,-6.31
2023-01-29T07:40:03.988Z,-6.25
2023-01-29T07:41:04.085Z,-6.25
2023-01-29T07:42:04.066Z,-6.19
2023-01-29T07:43:04.080Z,-6.19
2023-01-29T07:44:04.067Z,-6.12
2023-01-29T07:45:03.987Z,-6.06
2023-01-29T07:46:04.156Z,-6.06
2023-01-29T07:47:03.910Z,-6.00
2023-01-29T07:48:03.901Z,-5.94
2023-01-29T07:49:03.914Z,-5.94
2023-01-29T07:50:03.827Z,-5.88
2023-01-29T07:51:03.748Z,-5.81
2023-01-29T07:52:03.756Z,-5.81
2023-01-29T07:53:03.774Z,-5.81
2023-01-29T07:54:03.925Z,-5.69
2023-01-29T07:55:03.752Z,-5.62
2023-01-29T07:56:03.774Z,-5.56
2023-01-29T07:57:03.754Z,-5.50
2023-01-29T07:58:04.006Z,-5.44
2023-01-29T07:59:04.079Z,-5.44
2023-01-29T08:00:03.930Z,-5.38
2023-01-29T08:01:03.956Z,-5.31
2023-01-29T08:02:03.912Z,-5.25
2023-01-29T08:03:03.835Z,-5.19
2023-01-29T08:04:03.758Z,-5.19
2023-01-29T08:05:03.669Z,-5.12
2023-01-29T08:06:03.594Z,-5.06
2023-01-29T08:07:03.592Z,-5.00
2023-01-29T08:08:07.185Z,-4.94
2023-01-29T08:09:03.591Z,-4.94
2023-01-29T08:10:03.507Z,-4.88
2023-01-29T08:11:03.546Z,-4.88
2023-01-29T08:12:03.540Z,-4.81
2023-01-29T08:13:04.493Z,-4.81
2023-01-29T08:14:04.477Z,-4.81
2023-01-29T08:15:04.316Z,-4.75
2023-01-29T08:16:04.301Z,-4.75
2023-01-29T08:17:04.331Z,-4.69
2023-01-29T08:18:04.229Z,-4.69
2023-01-29T08:19:04.240Z,-4.62
2023-01-29T08:20:04.143Z,-4.62
2023-01-29T08:21:04.096Z,-4.56
2023-01-29T08:22:04.164Z,-4.56
2023-01-29T08:23:04.076Z,-4.50
2023-01-29T08:24:03.929Z,-4.44
2023-01-29T08:25:08.146Z,-4.44
2023-01-29T08:26:03.965Z,-4.38
2023-01-29T08:27:03.829Z,-4.31
2023-01-29T08:28:03.832Z,-4.31
2023-01-29T08:29:03.863Z,-4.25
2023-01-29T08:30:03.744Z,-4.19
2023-01-29T08:31:03.834Z,-4.19
2023-01-29T08:32:04.746Z,-4.12
2023-01-29T08:33:03.587Z,-4.12
2023-01-29T08:34:03.590Z,-4.06
2023-01-29T08:35:03.671Z,-4.00
2023-01-29T08:36:03.591Z,-4.00
2023-01-29T08:37:03.661Z,-3.94
2023-01-29T08:38:03.591Z,-3.94
2023-01-29T08:39:03.589Z,-3.94
2023-01-29T08:40:03.516Z,-3.88
2023-01-29T08:41:03.517Z,-3.88
2023-01-29T08:42:03.601Z,-3.88
2023-01-29T08:43:04.055Z,-3.81
2023-01-29T08:44:03.503Z,-3.81
2023-01-29T08:45:03.906Z,-3.81
2023-01-29T08:46:04.096Z,-3.75
2023-01-29T08:47:03.989Z,-3.75
2023-01-29T08:48:03.957Z,-3.69
2023-01-29T08:49:03.842Z,-3.69
2023-01-29T08:50:03.855Z,-3.62
2023-01-29T08:51:03.751Z,-3.62
2023-01-29T08:52:04.015Z,-3.62
2023-01-29T08:53:03.587Z,-3.56
2023-01-29T08:54:03.664Z,-3.56
2023-01-29T08:55:03.605Z,-3.50
2023-01-29T08:56:03.589Z,-3.50
2023-01-29T08:57:03.586Z,-3.44
2023-01-29T08:58:03.512Z,-3.44
2023-01-29T08:59:03.432Z,-3.38
2023-01-29T09:00:04.401Z,-3.38
2023-01-29T09:01:04.355Z,-3.38
2023-01-29T09:02:04.268Z,-3.31
2023-01-29T09:03:04.318Z,-3.31
2023-01-29T09:04:04.305Z,-3.25
2023-01-29T09:05:04.244Z,-3.25
2023-01-29T09:06:04.234Z,-3.25
2023-01-29T09:07:04.244Z,-3.19
2023-01-29T09:09:04.386Z,-3.19
2023-01-29T09:10:04.321Z,-3.12
2023-01-29T09:11:04.316Z,-3.12
2023-01-29T09:12:04.318Z,-3.12
2023-01-29T09:13:04.311Z,-3.06
2023-01-29T09:14:04.227Z,-3.06
2023-01-29T09:15:04.330Z,-3.00
2023-01-29T09:16:04.323Z,-3.00
2023-01-29T09:17:04.388Z,-2.94
2023-01-29T09:18:04.400Z,-2.94
2023-01-29T09:19:04.315Z,-2.88
2023-01-29T09:20:04.310Z,-2.88
2023-01-29T09:21:04.340Z,-2.88
2023-01-29T09:22:04.298Z,-2.81
2023-01-29T09:23:04.322Z,-2.81
2023-01-29T09:24:04.328Z,-2.81
2023-01-29T09:25:04.412Z,-2.75
2023-01-29T09:26:04.484Z,-2.75
2023-01-29T09:27:04.480Z,-2.69
2023-01-29T09:28:04.395Z,-2.69
2023-01-29T09:29:04.308Z,-2.62
2023-01-29T09:30:04.249Z,-2.62
2023-01-29T09:31:04.345Z,-2.62
2023-01-29T09:32:04.161Z,-2.56
2023-01-29T09:33:04.225Z,-2.56
2023-01-29T09:34:04.310Z,-2.50
2023-01-29T09:35:04.388Z,-2.50
2023-01-29T09:36:04.310Z,-2.50
2023-01-29T09:37:04.392Z,-2.44
2023-01-29T09:38:04.407Z,-2.44
2023-01-29T09:39:03.524Z,-2.38
2023-01-29T09:40:03.512Z,-2.44
2023-01-29T09:41:03.596Z,-2.38
2023-01-29T09:42:03.517Z,-2.38
2023-01-29T09:43:03.586Z,-2.38
2023-01-29T09:44:03.619Z,-2.31
2023-01-29T09:45:03.588Z,-2.31
2023-01-29T09:46:03.666Z,-2.25
2023-01-29T09:47:03.680Z,-2.25
2023-01-29T09:48:03.520Z,-2.19
2023-01-29T09:49:03.588Z,-2.19
2023-01-29T09:50:03.502Z,-2.12
2023-01-29T09:51:03.509Z,-2.12
2023-01-29T09:52:03.430Z,-2.12
2023-01-29T09:53:03.428Z,-2.06
2023-01-29T09:54:03.508Z,-2.06
2023-01-29T09:55:03.511Z,-2.00
2023-01-29T09:56:03.671Z,-2.00
2023-01-29T09:57:03.501Z,-1.94
2023-01-29T09:58:03.527Z,-1.88
2023-01-29T09:59:03.586Z,-1.88
2023-01-29T10:00:03.595Z,-1.81
2023-01-29T10:01:03.717Z,-1.81
2023-01-29T10:02:03.797Z,-1.81
2023-01-29T10:03:03.523Z,-1.75
2023-01-29T10:04:03.587Z,-1.75
2023-01-29T10:05:04.492Z,-1.75
2023-01-29T10:06:04.394Z,-1.69
2023-01-29T10:07:04.400Z,-1.62
2023-01-29T10:08:04.360Z,-1.62
2023-01-29T10:09:04.230Z,-1.62
2023-01-29T10:10:04.237Z,-1.56
2023-01-29T10:11:04.162Z,-1.50
2023-01-29T10:12:04.063Z,-1.44
2023-01-29T10:13:04.072Z,-1.44
2023-01-29T10:14:04.160Z,-1.38
2023-01-29T10:15:03.523Z,-1.31
2023-01-29T10:16:03.522Z,-1.31
2023-01-29T10:17:03.670Z,-1.25
2023-01-29T10:18:03.594Z,-1.25
2023-01-29T10:19:03.507Z,-1.25
2023-01-29T10:20:03.991Z,-1.19
2023-01-29T10:21:03.758Z,-1.12
2023-01-29T10:22:03.671Z,-1.12
2023-01-29T10:23:03.679Z,-1.06
2023-01-29T10:24:03.591Z,-1.00
2023-01-29T10:25:03.584Z,-1.00
2023-01-29T10:26:03.674Z,-0.94
2023-01-29T10:27:03.507Z,-0.94
2023-01-29T10:28:03.516Z,-0.88
2023-01-29T10:29:03.674Z,-0.88
2023-01-29T10:30:03.588Z,-0.81
2023-01-29T10:31:03.644Z,-0.81
2023-01-29T10:32:03.618Z,-0.81
2023-01-29T10:33:04.468Z,-0.75
2023-01-29T10:34:04.397Z,-0.75
2023-01-29T10:35:04.390Z,-0.75
2023-01-29T10:36:04.232Z,-0.69
2023-01-29T10:37:04.173Z,-0.69
2023-01-29T10:38:04.070Z,-0.62
2023-01-29T10:39:04.151Z,-0.56
2023-01-29T10:40:04.067Z,-0.56
2023-01-29T10:41:04.077Z,-0.50
2023-01-29T10:42:04.002Z,-0.50
2023-01-29T10:43:03.999Z,-0.44
2023-01-29T10:44:03.915Z,-0.38
2023-01-29T10:45:03.995Z,-0.31
2023-01-29T10:46:04.010Z,-0.31
2023-01-29T10:47:03.962Z,-0.25
2023-01-29T10:48:03.833Z,-0.19
2023-01-29T10:49:03.836Z,-0.19
2023-01-29T10:50:03.927Z,-0.19
2023-01-29T10:51:03.909Z,-0.12
2023-01-29T10:52:03.904Z,-0.12
2023-01-29T10:53:03.987Z,-0.06
2023-01-29T10:54:03.983Z,-0.06
2023-01-29T10:55:04.003Z,-0.06
2023-01-29T10:56:10.840Z,-0.06
2023-01-29T10:57:03.990Z,0.00
2023-01-29T10:58:03.944Z,0.00
2023-01-29T10:59:03.829Z,0.00
2023-01-29T11:00:03.840Z,0.06
2023-01-29T11:01:03.836Z,0.06
2023-01-29T11:02:03.764Z,0.06
2023-01-29T11:03:05.237Z,0.12
2023-01-29T11:04:03.752Z,0.12
2023-01-29T11:05:03.759Z,0.12
2023-01-29T11:06:03.756Z,0.19
2023-01-29T11:07:03.758Z,0.19
2023-01-29T11:08:03.747Z,0.19
2023-01-29T11:09:03.761Z,0.25
2023-01-29T11:10:03.756Z,0.25
2023-01-29T11:11:03.752Z,0.31
2023-01-29T11:12:03.693Z,0.31
2023-01-29T11:13:03.675Z,0.31
2023-01-29T11:14:03.595Z,0.31
2023-01-29T11:15:03.535Z,0.38
2023-01-29T11:16:03.530Z,0.38
2023-01-29T11:17:04.533Z,0.44
2023-01-29T11:18:04.495Z,0.44
2023-01-29T11:19:04.404Z,0.44
2023-01-29T11:20:04.392Z,0.50
2023-01-29T11:21:04.384Z,0.50
2023-01-29T11:22:04.342Z,0.56
2023-01-29T11:23:05.675Z,0.56
2023-01-29T11:24:04.233Z,0.62
2023-01-29T11:25:04.301Z,0.62
2023-01-29T11:26:04.309Z,0.69
2023-01-29T11:27:04.238Z,0.69
2023-01-29T11:28:04.309Z,0.69
2023-01-29T11:29:04.340Z,0.75
2023-01-29T11:30:04.232Z,0.75
2023-01-29T11:31:04.326Z,0.75
2023-01-29T11:32:04.233Z,0.81
2023-01-29T11:33:04.074Z,0.81
2023-01-29T11:34:03.993Z,0.88
2023-01-29T11:35:04.078Z,0.88
2023-01-29T11:36:04.067Z,0.88
2023-01-29T11:37:04.088Z,0.88
2023-01-29T11:38:03.990Z,0.88
2023-01-29T11:39:03.997Z,0.94
2023-01-29T11:40:03.999Z,1.00
2023-01-29T11:41:03.990Z,1.00
2023-01-29T11:42:04.005Z,1.00
2023-01-29T11:43:03.911Z,1.00
2023-01-29T11:44:03.831Z,1.00
2023-01-29T11:45:03.840Z,1.06
2023-01-29T11:46:03.919Z,1.06
2023-01-29T11:47:03.746Z,1.06
2023-01-29T11:48:03.825Z,1.06
2023-01-29T11:49:14.200Z,1.06
2023-01-29T11:50:03.914Z,1.12
2023-01-29T11:51:05.586Z,1.12
2023-01-29T11:52:03.985Z,1.12
2023-01-29T11:53:03.907Z,1.19
2023-01-29T11:54:03.996Z,1.19
2023-01-29T11:55:04.083Z,1.19
2023-01-29T11:56:03.920Z,1.25
2023-01-29T11:57:03.844Z,1.31
2023-01-29T11:58:03.920Z,1.31
2023-01-29T11:59:03.749Z,1.31
2023-01-29T12:00:03.749Z,1.31
2023-01-29T12:01:03.846Z,1.31
2023-01-29T12:02:03.910Z,1.38
2023-01-29T12:03:03.834Z,1.38
2023-01-29T12:04:03.982Z,1.38
2023-01-29T12:05:03.837Z,1.38
2023-01-29T12:06:03.917Z,1.38
2023-01-29T12:07:03.918Z,1.38
2023-01-29T12:08:03.837Z,1.44
2023-01-29T12:09:03.748Z,1.44
2023-01-29T12:10:03.772Z,1.44
2023-01-29T12:11:03.749Z,1.50
2023-01-29T12:12:03.754Z,1.50
2023-01-29T12:13:03.835Z,1.50
2023-01-29T12:14:03.747Z,1.56
2023-01-29T12:15:03.859Z,1.56
2023-01-29T12:16:03.773Z,1.56
2023-01-29T12:17:03.752Z,1.56
2023-01-29T12:18:03.747Z,1.56
2023-01-29T12:19:03.670Z,1.62
2023-01-29T12:20:03.590Z,1.62
2023-01-29T12:21:04.872Z,1.69
2023-01-29T12:22:04.073Z,1.69
2023-01-29T12:23:03.939Z,1.75
2023-01-29T12:24:03.832Z,1.75
2023-01-29T12:25:03.747Z,1.75
2023-01-29T12:26:03.759Z,1.75
2023-01-29T12:27:03.757Z,1.75
2023-01-29T12:28:03.661Z,1.75
2023-01-29T12:29:03.755Z,1.81
2023-01-29T12:30:03.669Z,1.81
2023-01-29T12:31:03.904Z,1.81
2023-01-29T12:32:03.668Z,1.81
2023-01-29T12:33:03.673Z,1.88
2023-01-29T12:34:03.745Z,1.81
2023-01-29T12:35:03.749Z,1.88
2023-01-29T12:36:03.752Z,1.88
2023-01-29T12:37:03.670Z,1.88
2023-01-29T12:38:03.748Z,1.88
2023-01-29T12:39:03.843Z,1.88
2023-01-29T12:40:03.672Z,1.88
2023-01-29T12:41:03.663Z,1.88
2023-01-29T12:42:03.701Z,1.88
2023-01-29T12:43:03.668Z,1.88
2023-01-29T12:44:03.593Z,1.88
2023-01-29T12:45:03.590Z,1.88
2023-01-29T12:46:03.593Z,1.88
2023-01-29T12:47:03.646Z,1.88
2023-01-29T12:48:03.505Z,1.88
2023-01-29T12:49:03.597Z,1.88
2023-01-29T12:50:03.588Z,1.88
2023-01-29T12:51:03.594Z,1.88
2023-01-29T12:52:03.508Z,1.88
2023-01-29T12:53:03.522Z,1.88
2023-01-29T12:54:03.512Z,1.88
2023-01-29T12:55:03.515Z,1.88
2023-01-29T12:56:03.512Z,1.88
2023-01-29T12:57:03.593Z,1.88